FDX30 KIND-LFPG
Flight info
| Callsign | FDX30 |
|---|---|
| Flight time | N/A |
| Altitude | 33000 |
| Route | MAREO5 BDOCK DCT KLYNE Q29 JHW Q84 CAM Q822 ALLEX N503B ALLRY/M084F330 DCT 51N050W 53N040W 54N030W 54N020W DCT MALOT DCT GISTI/N0483F330 DCT LESLU DCT ANNET UM25 LUKIP LUKIP9W |
| Aircraft | B77L/H-VGDW/C |
Departure
| Time | 2026-04-28 11:45 |
|---|---|
| Airport | Indianapolis International Airport (KIND) |
Arrival
| Time | N/A |
|---|---|
| Airport | Charles de Gaulle International Airport (LFPG) |
| Time | Latitude | Longitude | Altitude | Speed | Heading |
|---|---|---|---|---|---|
| 2026-04-28 10:26 | 39.71592 | -86.27876 | 790 ft | 0 kts | 134° |
| 2026-04-28 11:35 | 39.71602 | -86.27890 | 790 ft | 3 kts | 130° |
| 2026-04-28 11:35 | 39.71614 | -86.27911 | 789 ft | 3 kts | 119° |
| 2026-04-28 11:36 | 39.71623 | -86.27934 | 789 ft | 3 kts | 101° |
| 2026-04-28 11:36 | 39.71624 | -86.27958 | 789 ft | 3 kts | 68° |
| 2026-04-28 11:36 | 39.71617 | -86.27972 | 789 ft | 0 kts | 37° |
| 2026-04-28 11:40 | 39.71626 | -86.27967 | 789 ft | 3 kts | 20° |
| 2026-04-28 11:41 | 39.71654 | -86.27973 | 789 ft | 5 kts | 338° |
| 2026-04-28 11:41 | 39.71682 | -86.27983 | 789 ft | 3 kts | 356° |
| 2026-04-28 11:41 | 39.71706 | -86.27977 | 789 ft | 4 kts | 17° |
| 2026-04-28 11:41 | 39.71709 | -86.27975 | 789 ft | 4 kts | 19° |
| 2026-04-28 11:42 | 39.71726 | -86.27964 | 789 ft | 4 kts | 30° |
| 2026-04-28 11:42 | 39.71748 | -86.27942 | 789 ft | 4 kts | 39° |
| 2026-04-28 11:42 | 39.71770 | -86.27918 | 790 ft | 4 kts | 42° |
| 2026-04-28 11:42 | 39.71793 | -86.27888 | 791 ft | 6 kts | 44° |
| 2026-04-28 11:43 | 39.71824 | -86.27851 | 792 ft | 6 kts | 37° |
| 2026-04-28 11:43 | 39.71860 | -86.27846 | 792 ft | 5 kts | 348° |
| 2026-04-28 11:43 | 39.71893 | -86.27870 | 791 ft | 6 kts | 323° |
| 2026-04-28 11:43 | 39.71928 | -86.27911 | 791 ft | 7 kts | 312° |
| 2026-04-28 11:44 | 39.71943 | -86.27967 | 790 ft | 6 kts | 271° |
| 2026-04-28 11:44 | 39.71925 | -86.28018 | 789 ft | 6 kts | 229° |
| 2026-04-28 11:44 | 39.71919 | -86.28026 | 789 ft | 0 kts | 225° |
| 2026-04-28 11:44 | 39.71917 | -86.28028 | 789 ft | 5 kts | 225° |
| 2026-04-28 11:45 | 39.71707 | -86.28298 | 784 ft | 84 kts | 224° |
| 2026-04-28 11:45 | 39.71111 | -86.29056 | 786 ft | 158 kts | 224° |
| 2026-04-28 11:45 | 39.70181 | -86.30237 | 884 ft | 205 kts | 226° |
| 2026-04-28 11:45 | 39.69188 | -86.31515 | 1747 ft | 193 kts | 226° |
| 2026-04-28 11:46 | 39.68258 | -86.32750 | 2619 ft | 193 kts | 227° |
| 2026-04-28 11:46 | 39.67307 | -86.34046 | 2992 ft | 204 kts | 229° |
| 2026-04-28 11:46 | 39.66323 | -86.35483 | 3194 ft | 222 kts | 234° |
| 2026-04-28 11:46 | 39.65318 | -86.37113 | 3477 ft | 241 kts | 235° |
| 2026-04-28 11:47 | 39.64065 | -86.38643 | 3774 ft | 257 kts | 209° |
| 2026-04-28 11:47 | 39.62260 | -86.39104 | 4301 ft | 276 kts | 178° |
| 2026-04-28 11:47 | 39.60401 | -86.38372 | 4993 ft | 288 kts | 154° |
| 2026-04-28 11:47 | 39.58842 | -86.36675 | 5585 ft | 301 kts | 130° |
| 2026-04-28 11:48 | 39.57905 | -86.34206 | 6140 ft | 312 kts | 102° |
| 2026-04-28 11:48 | 39.57886 | -86.31378 | 6667 ft | 319 kts | 76° |
| 2026-04-28 11:48 | 39.58509 | -86.28610 | 7289 ft | 320 kts | 67° |
| 2026-04-28 11:48 | 39.59321 | -86.25927 | 7943 ft | 320 kts | 65° |
| 2026-04-28 11:49 | 39.60178 | -86.23237 | 8541 ft | 325 kts | 65° |
| 2026-04-28 11:49 | 39.61043 | -86.20511 | 9166 ft | 328 kts | 65° |
| 2026-04-28 11:49 | 39.61890 | -86.17760 | 9787 ft | 330 kts | 66° |
| 2026-04-28 11:49 | 39.62732 | -86.14969 | 10328 ft | 336 kts | 66° |
| 2026-04-28 11:50 | 39.63600 | -86.12071 | 10520 ft | 355 kts | 66° |
| 2026-04-28 11:50 | 39.64494 | -86.09041 | 10685 ft | 374 kts | 67° |
| 2026-04-28 11:50 | 39.65440 | -86.05793 | 10837 ft | 393 kts | 67° |
| 2026-04-28 11:50 | 39.66421 | -86.02385 | 11100 ft | 410 kts | 67° |
| 2026-04-28 11:51 | 39.67426 | -85.98873 | 11552 ft | 419 kts | 67° |
| 2026-04-28 11:51 | 39.68444 | -85.95295 | 12120 ft | 425 kts | 68° |
| 2026-04-28 11:51 | 39.69469 | -85.91683 | 12745 ft | 429 kts | 67° |
| 2026-04-28 11:51 | 39.70509 | -85.88030 | 13324 ft | 434 kts | 68° |
| 2026-04-28 11:52 | 39.71565 | -85.84315 | 13806 ft | 441 kts | 68° |
| 2026-04-28 11:52 | 39.72626 | -85.80579 | 14313 ft | 448 kts | 68° |
| 2026-04-28 11:52 | 39.73708 | -85.76766 | 14854 ft | 453 kts | 68° |
| 2026-04-28 11:52 | 39.74802 | -85.72903 | 15388 ft | 458 kts | 68° |
| 2026-04-28 11:53 | 39.75906 | -85.68989 | 15862 ft | 464 kts | 68° |
| 2026-04-28 11:53 | 39.77027 | -85.65020 | 16322 ft | 471 kts | 68° |
| 2026-04-28 11:53 | 39.78164 | -85.60998 | 16816 ft | 476 kts | 68° |
| 2026-04-28 11:53 | 39.79306 | -85.56939 | 17304 ft | 481 kts | 68° |
| 2026-04-28 11:54 | 39.80461 | -85.52833 | 17756 ft | 486 kts | 68° |
| 2026-04-28 11:54 | 39.81629 | -85.48670 | 18206 ft | 492 kts | 68° |
| 2026-04-28 11:54 | 39.82407 | -85.45891 | 18509 ft | 495 kts | 68° |
| 2026-04-28 11:54 | 39.83588 | -85.41663 | 19003 ft | 499 kts | 68° |
| 2026-04-28 11:55 | 39.84776 | -85.37410 | 19526 ft | 501 kts | 68° |
| 2026-04-28 11:55 | 39.85967 | -85.33139 | 19988 ft | 504 kts | 69° |
| 2026-04-28 11:55 | 39.87146 | -85.28812 | 20411 ft | 509 kts | 71° |
| 2026-04-28 11:55 | 39.88061 | -85.24349 | 20822 ft | 514 kts | 78° |
| 2026-04-28 11:56 | 39.88659 | -85.19747 | 21274 ft | 516 kts | 85° |
| 2026-04-28 11:56 | 39.88926 | -85.15066 | 21737 ft | 518 kts | 88° |
| 2026-04-28 11:56 | 39.89143 | -85.10374 | 22142 ft | 521 kts | 88° |
| 2026-04-28 11:56 | 39.89363 | -85.05643 | 22509 ft | 525 kts | 88° |
| 2026-04-28 11:57 | 39.89591 | -85.00934 | 22896 ft | 528 kts | 88° |
| 2026-04-28 11:57 | 39.89834 | -84.96142 | 23315 ft | 531 kts | 87° |
| 2026-04-28 11:57 | 39.90086 | -84.91325 | 23699 ft | 534 kts | 87° |
| 2026-04-28 11:57 | 39.90341 | -84.86481 | 24081 ft | 537 kts | 87° |
| 2026-04-28 11:58 | 39.90598 | -84.81623 | 24444 ft | 539 kts | 87° |
| 2026-04-28 11:58 | 39.90855 | -84.76740 | 24850 ft | 541 kts | 87° |
| 2026-04-28 11:58 | 39.91110 | -84.71850 | 25283 ft | 542 kts | 88° |
| 2026-04-28 11:58 | 39.91363 | -84.66943 | 25694 ft | 543 kts | 88° |
| 2026-04-28 11:59 | 39.91614 | -84.62030 | 26084 ft | 544 kts | 88° |
| 2026-04-28 11:59 | 39.91860 | -84.57107 | 26473 ft | 546 kts | 88° |
| 2026-04-28 11:59 | 39.92105 | -84.52161 | 26866 ft | 547 kts | 89° |
| 2026-04-28 11:59 | 39.92347 | -84.47214 | 27237 ft | 547 kts | 89° |
| 2026-04-28 12:00 | 39.92592 | -84.42251 | 27575 ft | 549 kts | 89° |
| 2026-04-28 12:00 | 39.92835 | -84.37281 | 27924 ft | 550 kts | 89° |
| 2026-04-28 12:00 | 39.93078 | -84.32303 | 28259 ft | 549 kts | 89° |
| 2026-04-28 12:00 | 39.93701 | -84.27370 | 28467 ft | 557 kts | 75° |
| 2026-04-28 12:01 | 39.95197 | -84.22679 | 28698 ft | 562 kts | 60° |
| 2026-04-28 12:01 | 39.97401 | -84.18482 | 28984 ft | 562 kts | 48° |
| 2026-04-28 12:01 | 40.00154 | -84.15000 | 29203 ft | 558 kts | 39° |
| 2026-04-28 12:01 | 40.03105 | -84.11672 | 29404 ft | 561 kts | 39° |
| 2026-04-28 12:02 | 40.06051 | -84.08303 | 29713 ft | 562 kts | 40° |
| 2026-04-28 12:02 | 40.08968 | -84.04906 | 30115 ft | 560 kts | 41° |
| 2026-04-28 12:02 | 40.11857 | -84.01493 | 30489 ft | 559 kts | 41° |
| 2026-04-28 12:02 | 40.14724 | -83.98072 | 30821 ft | 558 kts | 41° |
| 2026-04-28 12:03 | 40.20476 | -83.91147 | 30938 ft | 564 kts | 42° |
| 2026-04-28 12:03 | 40.26231 | -83.84216 | 30923 ft | 559 kts | 42° |
| 2026-04-28 12:04 | 40.31942 | -83.77328 | 30953 ft | 557 kts | 42° |
| 2026-04-28 12:04 | 40.37644 | -83.70443 | 30913 ft | 561 kts | 39° |
| 2026-04-28 12:05 | 40.43435 | -83.63449 | 30937 ft | 568 kts | 39° |
| 2026-04-28 12:05 | 40.49211 | -83.56460 | 30916 ft | 568 kts | 40° |
| 2026-04-28 12:06 | 40.54995 | -83.49419 | 30906 ft | 565 kts | 40° |
| 2026-04-28 12:06 | 40.60708 | -83.42302 | 30899 ft | 564 kts | 40° |
| 2026-04-28 12:07 | 40.66462 | -83.35319 | 30912 ft | 561 kts | 39° |
| 2026-04-28 12:07 | 40.71947 | -83.28145 | 30966 ft | 559 kts | 49° |
| 2026-04-28 12:08 | 40.76705 | -83.19877 | 30955 ft | 571 kts | 52° |
| 2026-04-28 12:08 | 40.81448 | -83.11484 | 30885 ft | 569 kts | 52° |
| 2026-04-28 12:09 | 40.86271 | -83.03194 | 30905 ft | 569 kts | 51° |
| 2026-04-28 12:09 | 40.91111 | -82.94947 | 30903 ft | 569 kts | 52° |
| 2026-04-28 12:10 | 40.95952 | -82.86646 | 30921 ft | 569 kts | 51° |
| 2026-04-28 12:10 | 41.00767 | -82.78363 | 30920 ft | 566 kts | 51° |
| 2026-04-28 12:11 | 41.05509 | -82.70160 | 30902 ft | 562 kts | 52° |
| 2026-04-28 12:11 | 41.10270 | -82.61956 | 30913 ft | 561 kts | 52° |
| 2026-04-28 12:12 | 41.14941 | -82.53634 | 30916 ft | 563 kts | 56° |
| 2026-04-28 12:12 | 41.18813 | -82.44600 | 30915 ft | 564 kts | 64° |
| 2026-04-28 12:13 | 41.22265 | -82.35273 | 30920 ft | 560 kts | 66° |
| 2026-04-28 12:13 | 41.25705 | -82.26024 | 30918 ft | 563 kts | 61° |
| 2026-04-28 12:14 | 41.29612 | -82.16998 | 30942 ft | 564 kts | 63° |
| 2026-04-28 12:14 | 41.33262 | -82.07752 | 30928 ft | 563 kts | 63° |
| 2026-04-28 12:15 | 41.36588 | -81.98349 | 30894 ft | 560 kts | 68° |
| 2026-04-28 12:15 | 41.39595 | -81.88781 | 30912 ft | 560 kts | 69° |
| 2026-04-28 12:16 | 41.42593 | -81.79176 | 30912 ft | 562 kts | 69° |
| 2026-04-28 12:16 | 41.45606 | -81.69643 | 30905 ft | 562 kts | 69° |
| 2026-04-28 12:17 | 41.48654 | -81.60039 | 30909 ft | 562 kts | 69° |
| 2026-04-28 12:17 | 41.51693 | -81.50441 | 30919 ft | 561 kts | 69° |
| 2026-04-28 12:18 | 41.54706 | -81.40852 | 30924 ft | 560 kts | 69° |
| 2026-04-28 12:18 | 41.57707 | -81.31273 | 30918 ft | 560 kts | 69° |
| 2026-04-28 12:19 | 41.60599 | -81.21613 | 30903 ft | 560 kts | 69° |
| 2026-04-28 12:19 | 41.63615 | -81.12072 | 30911 ft | 556 kts | 68° |
| 2026-04-28 12:20 | 41.66638 | -81.02553 | 30944 ft | 555 kts | 69° |
| 2026-04-28 12:20 | 41.69578 | -80.93082 | 30948 ft | 555 kts | 69° |
| 2026-04-28 12:21 | 41.72508 | -80.83520 | 30952 ft | 555 kts | 69° |
| 2026-04-28 12:21 | 41.75431 | -80.73950 | 30957 ft | 554 kts | 69° |
| 2026-04-28 12:22 | 41.78349 | -80.64431 | 30964 ft | 553 kts | 69° |
| 2026-04-28 12:22 | 41.81233 | -80.54863 | 30937 ft | 553 kts | 71° |
| 2026-04-28 12:23 | 41.83865 | -80.45141 | 30918 ft | 554 kts | 72° |
| 2026-04-28 12:23 | 41.86433 | -80.35385 | 30905 ft | 554 kts | 72° |
| 2026-04-28 12:24 | 41.89038 | -80.25625 | 30895 ft | 555 kts | 72° |
| 2026-04-28 12:24 | 41.91656 | -80.15873 | 30876 ft | 555 kts | 72° |
| 2026-04-28 12:25 | 41.94260 | -80.06172 | 30901 ft | 552 kts | 72° |
| 2026-04-28 12:25 | 41.96890 | -79.96473 | 30925 ft | 552 kts | 72° |
| 2026-04-28 12:26 | 41.99454 | -79.86712 | 30906 ft | 553 kts | 72° |
| 2026-04-28 12:26 | 42.01996 | -79.76980 | 30895 ft | 550 kts | 72° |